createdAt,value
2023-02-02T00:00:12.819Z,37.75
2023-02-02T00:08:51.697Z,34.50
2023-02-02T00:17:30.487Z,28.00
2023-02-02T00:20:06.264Z,31.00
2023-02-02T00:22:39.746Z,36.75
2023-02-02T00:25:19.205Z,30.50
2023-02-02T00:28:07.188Z,31.25
2023-02-02T00:30:43.080Z,27.00
2023-02-02T00:33:12.040Z,33.25
2023-02-02T00:35:46.151Z,33.25
2023-02-02T00:38:19.520Z,32.00
2023-02-02T00:40:50.999Z,32.25
2023-02-02T00:43:20.077Z,34.75
2023-02-02T00:45:52.538Z,31.50
2023-02-02T00:48:30.613Z,36.75
2023-02-02T00:51:02.856Z,33.25
2023-02-02T00:53:36.983Z,33.00
2023-02-02T00:56:10.934Z,26.50
2023-02-02T00:58:46.164Z,36.50
2023-02-02T01:01:24.927Z,24.50
2023-02-02T01:03:55.309Z,31.25
2023-02-02T01:06:27.954Z,33.25
2023-02-02T01:09:00.266Z,39.75
2023-02-02T01:11:31.440Z,38.75
2023-02-02T01:14:11.451Z,39.50
2023-02-02T01:16:46.882Z,35.00
2023-02-02T01:19:19.193Z,37.00
2023-02-02T01:21:53.238Z,33.50
2023-02-02T01:24:24.998Z,33.25
2023-02-02T01:26:58.735Z,38.50
2023-02-02T01:29:30.210Z,37.50
2023-02-02T01:32:02.602Z,25.75
2023-02-02T01:34:53.206Z,30.50
2023-02-02T01:37:27.778Z,27.75
2023-02-02T01:40:05.082Z,33.75
2023-02-02T01:45:33.769Z,37.25
2023-02-02T01:48:06.952Z,35.00
2023-02-02T01:50:59.121Z,33.25
2023-02-02T01:53:31.886Z,35.50
2023-02-02T01:56:12.969Z,38.50
2023-02-02T02:01:30.621Z,31.75
2023-02-02T02:04:06.766Z,26.50
2023-02-02T02:06:40.964Z,26.00
2023-02-02T02:09:11.789Z,25.50
2023-02-02T02:11:46.916Z,27.50
2023-02-02T02:14:37.005Z,33.00
2023-02-02T02:21:35.175Z,32.00
2023-02-02T02:25:07.456Z,30.50
2023-02-02T02:28:02.287Z,37.25
2023-02-02T02:34:13.877Z,19.75
2023-02-02T02:36:58.475Z,29.50
2023-02-02T02:39:31.711Z,29.25
2023-02-02T02:42:08.337Z,37.00
2023-02-02T02:44:42.933Z,39.00
2023-02-02T02:47:16.500Z,39.25
2023-02-02T02:49:50.340Z,31.25
2023-02-02T02:55:16.137Z,30.25
2023-02-02T02:58:07.723Z,28.25
2023-02-02T03:01:27.972Z,27.75
2023-02-02T03:04:35.222Z,29.75
2023-02-02T03:07:14.163Z,33.75
2023-02-02T03:09:48.131Z,20.25
2023-02-02T03:12:29.933Z,39.25
2023-02-02T03:15:10.900Z,35.50
2023-02-02T03:20:51.568Z,36.50
2023-02-02T03:23:26.730Z,27.75
2023-02-02T03:26:02.417Z,29.75
2023-02-02T03:28:39.421Z,22.75
2023-02-02T03:31:19.329Z,30.50
2023-02-02T03:34:02.602Z,36.50
2023-02-02T03:36:35.591Z,17.50
2023-02-02T03:39:06.603Z,28.75
2023-02-02T03:41:50.885Z,35.50
2023-02-02T03:44:32.571Z,20.75
2023-02-02T03:47:09.920Z,29.25
2023-02-02T03:49:40.230Z,35.25
2023-02-02T03:52:15.467Z,28.75
2023-02-02T03:54:47.604Z,36.00
2023-02-02T03:57:20.069Z,30.00
2023-02-02T03:59:51.792Z,28.00
2023-02-02T04:05:09.122Z,31.50
2023-02-02T04:07:43.708Z,32.00
2023-02-02T04:10:14.666Z,24.00
2023-02-02T04:12:48.273Z,28.25
2023-02-02T04:15:19.370Z,33.00
2023-02-02T04:17:49.523Z,29.75
2023-02-02T04:20:18.121Z,28.25
2023-02-02T04:22:52.423Z,31.00
2023-02-02T04:25:22.360Z,34.00
2023-02-02T04:27:51.360Z,16.25
2023-02-02T04:30:25.695Z,38.75
2023-02-02T04:32:56.620Z,31.50
2023-02-02T04:35:27.150Z,30.00
2023-02-02T04:37:58.277Z,36.25
2023-02-02T04:40:28.044Z,37.50
2023-02-02T04:43:02.712Z,35.75
2023-02-02T04:45:36.913Z,29.25
2023-02-02T04:48:07.121Z,36.50
2023-02-02T04:50:38.232Z,31.75
2023-02-02T04:53:08.577Z,29.50
2023-02-02T04:55:43.657Z,39.75
2023-02-02T04:58:16.800Z,28.75
2023-02-02T05:00:49.654Z,34.50
2023-02-02T05:03:20.221Z,31.00
2023-02-02T05:05:51.749Z,24.00
2023-02-02T05:08:22.297Z,31.00
2023-02-02T05:10:51.151Z,32.25
2023-02-02T05:13:21.999Z,31.50
2023-02-02T05:15:51.951Z,34.00
2023-02-02T05:21:03.373Z,28.00
2023-02-02T05:23:34.091Z,34.75
2023-02-02T05:26:05.659Z,27.75
2023-02-02T05:28:43.675Z,36.75
2023-02-02T05:31:23.778Z,31.75
2023-02-02T05:33:57.295Z,28.00
2023-02-02T05:36:28.943Z,34.75
2023-02-02T05:41:58.774Z,34.00
2023-02-02T05:44:31.504Z,31.25
2023-02-02T05:49:46.735Z,30.50
2023-02-02T05:52:20.925Z,31.00
2023-02-02T06:00:29.859Z,35.00
2023-02-02T06:07:42.687Z,31.00
2023-02-02T06:34:26.661Z,26.00
2023-02-02T06:37:19.304Z,31.75
2023-02-02T06:43:07.931Z,17.25
2023-02-02T10:51:36.284Z,28.50
2023-02-02T10:54:17.552Z,22.75
2023-02-02T10:56:55.098Z,19.25
2023-02-02T10:59:44.795Z,19.25
2023-02-02T11:02:21.027Z,24.75
2023-02-02T11:05:09.104Z,19.00
2023-02-02T11:07:39.334Z,25.50
2023-02-02T11:10:08.215Z,23.75
2023-02-02T11:12:46.300Z,23.75
2023-02-02T11:15:34.236Z,28.50
2023-02-02T11:18:36.397Z,18.75
2023-02-02T11:21:24.255Z,29.25
2023-02-02T11:23:59.844Z,26.25
2023-02-02T11:26:56.105Z,25.00
2023-02-02T11:29:33.071Z,20.25
2023-02-02T11:35:25.279Z,21.50
2023-02-02T11:41:15.873Z,23.25
2023-02-02T11:43:55.888Z,17.75
2023-02-02T11:46:31.502Z,28.00
2023-02-02T11:49:08.641Z,26.25
2023-02-02T11:51:37.377Z,25.50
2023-02-02T11:54:34.968Z,24.00
2023-02-02T11:57:30.690Z,22.50
2023-02-02T12:00:11.446Z,27.75
2023-02-02T12:02:51.088Z,18.50
2023-02-02T12:05:27.133Z,19.00
2023-02-02T12:07:57.045Z,19.25
2023-02-02T12:17:07.999Z,19.00
2023-02-02T12:20:31.905Z,15.00
2023-02-02T12:23:58.265Z,19.50
2023-02-02T12:26:48.538Z,15.00
2023-02-02T12:29:34.337Z,21.00
2023-02-02T12:32:39.767Z,15.50
2023-02-02T12:53:30.219Z,14.25
2023-02-02T12:56:35.417Z,19.25
2023-02-02T12:59:53.893Z,18.75
2023-02-02T13:02:38.253Z,25.00
2023-02-02T13:08:27.843Z,29.00
2023-02-02T13:11:04.606Z,26.50
2023-02-02T13:13:40.789Z,24.50
2023-02-02T13:16:19.418Z,23.50
2023-02-02T13:19:08.519Z,26.00
2023-02-02T13:21:39.747Z,15.75
2023-02-02T13:24:28.867Z,20.25
2023-02-02T13:27:00.586Z,22.25
2023-02-02T13:29:55.896Z,16.75
2023-02-02T13:32:39.860Z,20.50
2023-02-02T13:51:42.203Z,19.75
2023-02-02T14:04:40.043Z,12.00
2023-02-02T14:14:36.403Z,13.25
2023-02-02T14:17:23.016Z,14.50
2023-02-02T14:19:55.316Z,15.50
2023-02-02T14:22:43.445Z,19.75
2023-02-02T14:25:33.745Z,16.00
2023-02-02T14:28:11.579Z,4.25
2023-02-02T14:30:41.039Z,12.75
2023-02-02T14:33:27.311Z,15.75
2023-02-02T14:36:01.766Z,18.00
2023-02-02T14:39:04.637Z,14.25
2023-02-02T14:42:24.405Z,17.00
2023-02-02T14:51:25.629Z,14.25
2023-02-02T14:54:03.260Z,20.00
2023-02-02T15:03:45.714Z,16.25
2023-02-02T15:15:36.301Z,17.50
2023-02-02T15:18:34.092Z,23.50
2023-02-02T15:21:08.501Z,19.75
2023-02-02T15:23:46.374Z,22.00
2023-02-02T15:26:28.374Z,22.25
2023-02-02T15:29:08.414Z,15.25
2023-02-02T15:31:44.417Z,17.50
2023-02-02T15:34:25.265Z,12.00
2023-02-02T15:37:07.276Z,17.50
2023-02-02T15:39:56.684Z,15.00
2023-02-02T15:42:53.527Z,16.00
2023-02-02T15:45:48.421Z,21.75
2023-02-02T16:36:41.959Z,47.50
2023-02-02T16:51:38.574Z,19.00
2023-02-02T17:31:04.220Z,29.50
2023-02-02T17:33:40.916Z,19.00
2023-02-02T17:36:13.738Z,26.50
2023-02-02T17:38:42.290Z,24.50
2023-02-02T17:41:13.107Z,27.25
2023-02-02T17:43:43.168Z,27.25
2023-02-02T17:46:14.034Z,22.75
2023-02-02T17:48:44.525Z,18.50
2023-02-02T17:51:17.119Z,21.25
2023-02-02T17:53:46.343Z,21.75
2023-02-02T17:56:15.267Z,18.75
2023-02-02T17:58:44.068Z,18.50
2023-02-02T18:01:14.425Z,16.50
2023-02-02T18:03:49.323Z,19.50
2023-02-02T18:06:17.231Z,17.50
2023-02-02T18:08:46.063Z,22.25
2023-02-02T18:11:18.983Z,19.75
2023-02-02T18:13:47.934Z,15.50
2023-02-02T18:16:16.258Z,17.50
2023-02-02T18:18:47.035Z,17.00
2023-02-02T18:21:15.005Z,15.50
2023-02-02T18:23:57.488Z,18.50
2023-02-02T18:26:32.862Z,17.00
2023-02-02T18:29:01.362Z,14.50
2023-02-02T18:31:29.841Z,0.00
2023-02-02T18:34:03.842Z,22.25
2023-02-02T18:36:32.347Z,15.75
2023-02-02T18:39:00.125Z,16.25
2023-02-02T18:41:28.770Z,16.25
2023-02-02T18:43:57.374Z,11.00
2023-02-02T18:46:27.044Z,14.50
2023-02-02T18:52:02.594Z,15.75
2023-02-02T18:54:48.342Z,19.75
2023-02-02T18:57:19.975Z,16.00
2023-02-02T19:02:48.194Z,7.00
2023-02-02T19:17:16.831Z,25.25
2023-02-02T19:19:47.810Z,34.50
2023-02-02T19:22:25.689Z,23.25
2023-02-02T19:24:56.266Z,17.25
2023-02-02T19:27:27.451Z,24.75
2023-02-02T19:30:06.175Z,15.50
2023-02-02T19:32:35.663Z,8.75
2023-02-02T19:35:07.968Z,7.25
2023-02-02T19:37:43.517Z,9.25
2023-02-02T19:40:20.290Z,12.50
2023-02-02T19:43:15.993Z,15.00
2023-02-02T19:45:45.343Z,9.00
2023-02-02T19:48:23.690Z,9.00
2023-02-02T19:50:59.202Z,7.25
2023-02-02T19:53:38.594Z,10.75
2023-02-02T19:56:35.746Z,9.50
2023-02-02T19:59:10.628Z,7.50
2023-02-02T20:01:40.324Z,9.75
2023-02-02T20:04:16.135Z,6.00
2023-02-02T20:16:03.624Z,8.25
2023-02-02T20:34:26.763Z,11.50
2023-02-02T20:37:23.315Z,14.50
2023-02-02T20:40:13.415Z,17.00
2023-02-02T20:42:42.234Z,12.50
2023-02-02T20:45:10.034Z,14.50
2023-02-02T20:47:38.503Z,13.00
2023-02-02T20:50:07.512Z,18.75
2023-02-02T20:52:36.482Z,15.50
2023-02-02T20:55:05.661Z,12.50
2023-02-02T20:57:33.727Z,10.00
2023-02-02T21:00:01.855Z,8.25
2023-02-02T21:02:30.756Z,6.75
2023-02-02T21:04:59.067Z,9.75
2023-02-02T21:07:27.852Z,7.75
2023-02-02T21:09:56.492Z,9.75
2023-02-02T21:12:26.575Z,6.75
2023-02-02T21:15:01.889Z,6.25
2023-02-02T21:17:32.087Z,8.25
2023-02-02T21:20:00.895Z,7.25
2023-02-02T21:31:48.770Z,9.75
2023-02-02T21:34:31.734Z,9.75
2023-02-02T21:37:00.960Z,10.00
2023-02-02T21:42:38.051Z,13.50
2023-02-02T21:45:28.967Z,7.75
2023-02-02T21:48:01.440Z,3.50
2023-02-02T21:50:36.093Z,9.75
2023-02-02T21:53:17.583Z,6.25
2023-02-02T21:59:00.712Z,6.25
2023-02-02T22:04:40.712Z,10.50
2023-02-02T22:07:14.992Z,8.75
2023-02-02T22:12:34.321Z,8.50
2023-02-02T22:18:19.038Z,6.75
2023-02-02T22:26:42.735Z,9.50
2023-02-02T22:29:21.607Z,7.00
2023-02-02T22:31:54.067Z,9.00
2023-02-02T22:34:23.374Z,6.75
2023-02-02T22:39:50.520Z,8.25
2023-02-02T22:42:19.137Z,7.00
2023-02-02T22:44:46.925Z,6.75
2023-02-02T22:47:15.640Z,9.50
2023-02-02T22:49:50.653Z,7.00
2023-02-02T22:55:22.324Z,9.50
2023-02-02T22:57:51.109Z,9.75
2023-02-02T23:00:26.823Z,7.25
2023-02-02T23:02:57.148Z,7.00
2023-02-02T23:05:28.189Z,7.50
2023-02-02T23:07:56.704Z,10.75
2023-02-02T23:10:27.865Z,7.25
2023-02-02T23:12:58.937Z,6.25
2023-02-02T23:15:27.404Z,7.00
2023-02-02T23:17:55.369Z,9.00
2023-02-02T23:20:24.561Z,8.25
2023-02-02T23:22:52.721Z,10.00
2023-02-02T23:25:20.649Z,9.50
2023-02-02T23:27:49.487Z,13.50
2023-02-02T23:30:20.727Z,9.50
2023-02-02T23:32:49.316Z,10.25
2023-02-02T23:35:17.563Z,9.25
2023-02-02T23:37:45.967Z,10.50
2023-02-02T23:40:13.838Z,10.25
2023-02-02T23:42:41.575Z,6.50
2023-02-02T23:45:11.543Z,11.25
2023-02-02T23:47:39.708Z,4.00
2023-02-02T23:50:09.946Z,5.25
2023-02-02T23:52:39.838Z,10.75
2023-02-02T23:55:08.162Z,10.00
2023-02-02T23:57:37.117Z,13.00
